createdAt,value
2022-12-08T00:01:51.401Z,4.1
2022-12-08T00:03:48.804Z,4
2022-12-08T00:05:54.214Z,4.1
2022-12-08T00:07:51.825Z,4.1
2022-12-08T00:09:49.275Z,4.1
2022-12-08T00:10:51.973Z,4
2022-12-08T00:12:49.502Z,4.2
2022-12-08T00:16:44.613Z,4.1
2022-12-08T00:18:49.934Z,4.3
2022-12-08T00:20:47.451Z,4.3
2022-12-08T00:22:44.981Z,4.3
2022-12-08T00:24:44.081Z,4.3
2022-12-08T00:26:41.528Z,4.4
2022-12-08T00:28:39.059Z,4.3
2022-12-08T00:40:32.156Z,4.4
2022-12-08T00:42:29.638Z,4.4
2022-12-08T00:44:27.178Z,4.4
2022-12-08T00:46:32.632Z,4.4
2022-12-08T00:48:30.099Z,4.4
2022-12-08T00:50:27.662Z,4.4
2022-12-08T00:52:25.193Z,4.4
2022-12-08T00:54:22.736Z,4.3
2022-12-08T00:56:20.222Z,4.4
2022-12-08T00:58:17.758Z,4.3
2022-12-08T01:00:23.928Z,4.3
2022-12-08T01:02:21.440Z,4.4
2022-12-08T01:04:18.967Z,4.3
2022-12-08T01:05:21.675Z,4.3
2022-12-08T01:07:19.169Z,4.3
2022-12-08T01:09:16.730Z,4.3
2022-12-08T01:11:14.284Z,4.3
2022-12-08T01:13:19.729Z,4.4
2022-12-08T01:15:17.254Z,4.4
2022-12-08T01:17:14.827Z,4.3
2022-12-08T01:19:12.424Z,4.3
2022-12-08T01:21:09.818Z,4.4
2022-12-08T01:23:07.345Z,4.4
2022-12-08T01:25:04.880Z,4.3
2022-12-08T01:27:10.312Z,4.5
2022-12-08T01:29:07.861Z,4.4
2022-12-08T01:31:05.498Z,4.4
2022-12-08T01:33:02.900Z,4.4
2022-12-08T01:35:00.439Z,4.4
2022-12-08T01:36:57.969Z,4.4
2022-12-08T01:42:58.457Z,4.4
2022-12-08T01:44:55.990Z,4.4
2022-12-08T01:46:53.647Z,4.4
2022-12-08T01:48:51.036Z,4.5
2022-12-08T01:50:48.585Z,4.5
2022-12-08T01:52:46.085Z,4.5
2022-12-08T01:54:51.494Z,4.5
2022-12-08T01:56:49.032Z,4.4
2022-12-08T01:58:46.556Z,4.5
2022-12-08T01:59:49.265Z,4.5
2022-12-08T02:03:44.316Z,4.5
2022-12-08T02:05:41.857Z,4.5
2022-12-08T02:07:47.318Z,4.5
2022-12-08T02:09:44.845Z,4.6
2022-12-08T02:11:42.383Z,4.5
2022-12-08T02:13:39.903Z,4.6
2022-12-08T02:15:37.507Z,4.7
2022-12-08T02:17:34.981Z,4.6
2022-12-08T02:19:32.601Z,4.6
2022-12-08T02:21:37.909Z,4.7
2022-12-08T02:25:32.978Z,4.6
2022-12-08T02:27:30.521Z,4.6
2022-12-08T02:29:28.048Z,4.6
2022-12-08T02:31:25.688Z,4.7
2022-12-08T02:33:23.072Z,4.7
2022-12-08T02:35:28.500Z,4.7
2022-12-08T02:39:23.544Z,4.7
2022-12-08T02:41:21.097Z,4.7
2022-12-08T02:43:18.629Z,4.8
2022-12-08T02:49:19.139Z,4.6
2022-12-08T02:51:16.666Z,4.7
2022-12-08T02:55:37.404Z,4.6
2022-12-08T02:57:34.942Z,4.6
2022-12-08T02:59:32.464Z,4.6
2022-12-08T03:01:37.970Z,4.6
2022-12-08T03:03:35.437Z,4.6
2022-12-08T03:05:32.957Z,4.5
2022-12-08T03:07:30.496Z,4.5
2022-12-08T03:09:28.022Z,4.5
2022-12-08T03:11:25.562Z,4.6
2022-12-08T03:13:23.111Z,4.6
2022-12-08T03:15:28.606Z,4.6
2022-12-08T03:17:26.087Z,4.6
2022-12-08T03:19:23.621Z,4.6
2022-12-08T03:23:18.680Z,4.6
2022-12-08T03:25:16.227Z,4.6
2022-12-08T03:27:13.788Z,4.6
2022-12-08T03:29:19.192Z,4.7
2022-12-08T03:31:16.747Z,4.6
2022-12-08T03:33:14.279Z,4.6
2022-12-08T03:35:11.829Z,4.7
2022-12-08T03:39:06.948Z,4.6
2022-12-08T03:41:04.480Z,4.6
2022-12-08T03:45:07.448Z,4.7
2022-12-08T03:47:04.982Z,4.6
2022-12-08T03:48:07.698Z,4.5
2022-12-08T03:50:05.498Z,4.6
2022-12-08T03:52:02.773Z,4.6
2022-12-08T03:56:05.745Z,4.7
2022-12-08T03:58:03.278Z,4.6
2022-12-08T04:00:00.922Z,4.7
2022-12-08T04:01:58.365Z,4.7
2022-12-08T04:03:55.872Z,4.7
2022-12-08T04:05:53.416Z,4.6
2022-12-08T04:07:50.962Z,4.7
2022-12-08T04:09:56.533Z,4.7
2022-12-08T04:11:53.871Z,4.7
2022-12-08T04:13:51.453Z,4.7
2022-12-08T04:17:46.519Z,4.7
2022-12-08T04:27:42.140Z,4.7
2022-12-08T04:29:39.660Z,4.8
2022-12-08T04:31:37.379Z,4.7
2022-12-08T04:33:34.757Z,4.8
2022-12-08T04:35:32.379Z,4.7
2022-12-08T04:37:37.739Z,4.7
2022-12-08T04:39:35.280Z,4.7
2022-12-08T04:41:32.811Z,4.8
2022-12-08T04:42:35.553Z,4.8
2022-12-08T04:48:28.177Z,4.8
2022-12-08T04:50:33.619Z,4.7
2022-12-08T04:54:28.766Z,4.8
2022-12-08T04:58:23.824Z,4.7
2022-12-08T05:04:24.340Z,4.7
2022-12-08T05:06:22.040Z,4.8
2022-12-08T05:08:19.575Z,4.8
2022-12-08T05:10:16.969Z,4.8
2022-12-08T05:12:14.511Z,4.8
2022-12-08T05:14:12.067Z,4.8
2022-12-08T05:16:09.649Z,4.8
2022-12-08T05:18:15.017Z,4.7
2022-12-08T05:20:12.544Z,4.8
2022-12-08T05:24:07.608Z,4.9
2022-12-08T05:26:05.165Z,4.8
2022-12-08T05:28:32.861Z,4.7
2022-12-08T05:30:00.221Z,4.7
2022-12-08T05:32:05.733Z,4.8
2022-12-08T05:34:03.703Z,4.8
2022-12-08T05:36:00.778Z,4.7
2022-12-08T05:37:03.613Z,4.7
2022-12-08T05:39:01.037Z,4.7
2022-12-08T05:40:58.590Z,4.8
2022-12-08T05:42:56.125Z,4.7
2022-12-08T05:45:01.563Z,4.7
2022-12-08T05:46:59.090Z,4.7
2022-12-08T05:48:56.630Z,4.7
2022-12-08T05:50:54.154Z,4.7
2022-12-08T05:52:51.694Z,4.6
2022-12-08T05:56:46.769Z,4.7
2022-12-08T05:58:52.213Z,4.7
2022-12-08T06:00:49.777Z,4.7
2022-12-08T06:02:47.490Z,4.7
2022-12-08T06:04:44.833Z,4.7
2022-12-08T06:06:43.940Z,4.6
2022-12-08T06:08:41.438Z,4.5
2022-12-08T06:10:38.991Z,4.5
2022-12-08T06:14:41.933Z,4.6
2022-12-08T06:18:37.035Z,4.6
2022-12-08T06:20:34.584Z,4.5
2022-12-08T06:22:32.140Z,4.5
2022-12-08T06:24:29.648Z,4.5
2022-12-08T06:26:35.089Z,4.4
2022-12-08T06:28:32.637Z,4.4
2022-12-08T06:30:30.162Z,4.3
2022-12-08T06:32:57.073Z,4.3
2022-12-08T06:34:54.629Z,4.3
2022-12-08T06:36:52.155Z,4.2
2022-12-08T06:38:57.593Z,4.3
2022-12-08T06:40:55.126Z,4.4
2022-12-08T06:42:52.642Z,4.3
2022-12-08T06:46:47.736Z,4.3
2022-12-08T06:48:45.294Z,4.3
2022-12-08T06:50:42.842Z,4.2
2022-12-08T06:52:55.937Z,4.2
2022-12-08T06:54:45.793Z,4.2
2022-12-08T06:56:43.338Z,4.2
2022-12-08T06:58:40.867Z,4.1
2022-12-08T07:00:38.408Z,4.2
2022-12-08T07:02:36.033Z,4.2
2022-12-08T07:04:33.446Z,4.1
2022-12-08T07:06:38.839Z,4.1
2022-12-08T07:08:36.383Z,4.2
2022-12-08T07:10:33.918Z,4.1
2022-12-08T07:12:31.434Z,4.1
2022-12-08T07:14:28.967Z,4.2
2022-12-08T07:16:26.566Z,4.2
2022-12-08T07:18:24.036Z,4.1
2022-12-08T07:22:26.929Z,4.2
2022-12-08T07:24:24.506Z,4.1
2022-12-08T07:25:27.209Z,4.2
2022-12-08T07:27:24.728Z,4.2
2022-12-08T07:29:26.164Z,4.2
2022-12-08T07:31:19.902Z,4.2
2022-12-08T07:33:25.219Z,4.2
2022-12-08T07:35:23.151Z,4.2
2022-12-08T07:39:17.809Z,4.2
2022-12-08T07:41:15.340Z,4.3
2022-12-08T07:43:12.846Z,4.2
2022-12-08T07:47:15.783Z,4.2
2022-12-08T07:49:13.319Z,4.3
2022-12-08T07:53:08.344Z,4.3
2022-12-08T07:55:05.877Z,4.2
2022-12-08T07:57:03.419Z,4.3
2022-12-08T07:59:00.946Z,4.2
2022-12-08T08:01:06.561Z,4.2
2022-12-08T08:03:04.007Z,4.3
2022-12-08T08:05:01.537Z,4.3
2022-12-08T08:06:58.945Z,4.3
2022-12-08T08:08:56.486Z,4.4
2022-12-08T08:10:54.013Z,4.3
2022-12-08T08:12:51.533Z,4.3
2022-12-08T08:14:56.952Z,4.3
2022-12-08T08:16:54.661Z,4.3
2022-12-08T08:18:52.021Z,4.3
2022-12-08T08:19:54.737Z,4.4
2022-12-08T08:21:52.261Z,4.2
2022-12-08T08:23:49.798Z,4.3
2022-12-08T08:27:52.744Z,4.4
2022-12-08T08:31:47.770Z,4.4
2022-12-08T08:33:45.311Z,4.4
2022-12-08T08:35:42.842Z,4.4
2022-12-08T08:37:43.117Z,4.3
2022-12-08T08:39:37.885Z,4.5
2022-12-08T08:41:43.327Z,4.4
2022-12-08T08:43:40.849Z,4.4
2022-12-08T08:45:38.381Z,4.4
2022-12-08T08:47:35.918Z,4.4
2022-12-08T08:49:33.448Z,4.4
2022-12-08T08:51:31.012Z,4.5
2022-12-08T08:53:28.514Z,4.5
2022-12-08T08:55:33.940Z,4.5
2022-12-08T08:57:31.478Z,4.5
2022-12-08T08:59:29.003Z,4.5
2022-12-08T09:03:24.063Z,4.6
2022-12-08T09:11:22.102Z,4.6
2022-12-08T09:13:19.682Z,4.6
2022-12-08T09:14:22.375Z,4.7
2022-12-08T09:16:20.075Z,4.6
2022-12-08T09:18:17.453Z,4.6
2022-12-08T09:20:15.001Z,4.6
2022-12-08T09:22:20.410Z,4.5
2022-12-08T09:24:17.962Z,4.6
2022-12-08T09:26:15.519Z,4.6
2022-12-08T09:28:13.041Z,4.6
2022-12-08T09:30:10.588Z,4.7
2022-12-08T09:32:08.125Z,4.7
2022-12-08T09:34:05.632Z,4.7
2022-12-08T09:36:11.056Z,4.6
2022-12-08T09:38:08.560Z,4.7
2022-12-08T09:40:06.518Z,4.6
2022-12-08T09:42:03.642Z,4.7
2022-12-08T09:44:01.201Z,4.7
2022-12-08T09:45:58.750Z,4.7
2022-12-08T09:47:56.293Z,4.7
2022-12-08T09:50:01.746Z,4.7
2022-12-08T09:51:59.267Z,4.8
2022-12-08T09:53:56.820Z,4.8
2022-12-08T09:55:54.373Z,4.8
2022-12-08T09:57:56.286Z,4.8
2022-12-08T09:59:49.443Z,4.8
2022-12-08T10:01:47.030Z,4.9
2022-12-08T10:03:52.449Z,4.8
2022-12-08T10:05:49.977Z,4.8
2022-12-08T10:07:47.583Z,4.9
2022-12-08T10:10:14.481Z,4.9
2022-12-08T10:12:12.045Z,4.9
2022-12-08T10:14:09.590Z,4.8
2022-12-08T10:16:22.057Z,4.7
2022-12-08T10:18:12.619Z,4.9
2022-12-08T10:20:10.164Z,4.8
2022-12-08T10:24:05.223Z,4.8
2022-12-08T10:26:02.783Z,4.7
2022-12-08T10:30:05.937Z,4.8
2022-12-08T10:34:00.932Z,4.8
2022-12-08T10:35:58.440Z,4.7
2022-12-08T10:37:55.964Z,4.8
2022-12-08T10:39:53.520Z,4.7
2022-12-08T10:41:51.089Z,4.8
2022-12-08T10:43:56.505Z,4.8
2022-12-08T10:45:54.038Z,4.8
2022-12-08T10:47:55.415Z,4.8
2022-12-08T10:49:49.167Z,4.8
2022-12-08T10:51:46.719Z,4.9
2022-12-08T10:53:44.282Z,4.9
2022-12-08T10:55:41.790Z,4.8
2022-12-08T10:57:47.261Z,4.9
2022-12-08T10:59:44.824Z,5
2022-12-08T11:01:42.526Z,5
2022-12-08T11:02:45.141Z,5
2022-12-08T11:04:42.637Z,5
2022-12-08T11:06:40.188Z,5
2022-12-08T11:10:43.176Z,4.9
2022-12-08T11:12:40.719Z,5
2022-12-08T11:14:38.245Z,5
2022-12-08T11:16:35.846Z,4.9
2022-12-08T11:18:33.337Z,5
2022-12-08T11:20:30.892Z,5
2022-12-08T11:22:28.448Z,5.1
2022-12-08T11:24:37.378Z,5.1
2022-12-08T11:26:31.461Z,5.1
2022-12-08T11:28:28.974Z,5.1
2022-12-08T11:30:26.565Z,5.1
2022-12-08T11:32:24.122Z,5.1
2022-12-08T11:36:19.177Z,5
2022-12-08T11:40:22.175Z,5.1
2022-12-08T11:42:19.719Z,5.1
2022-12-08T11:44:17.272Z,5.1
2022-12-08T11:46:14.828Z,5.2
2022-12-08T11:50:15.237Z,5.1
2022-12-08T11:52:16.924Z,5.1
2022-12-08T11:54:14.464Z,5.2
2022-12-08T11:56:12.009Z,5.1
2022-12-08T11:57:14.740Z,5.1
2022-12-08T11:59:13.237Z,5.2
2022-12-08T12:01:10.800Z,5.2
2022-12-08T12:03:08.419Z,5.2
2022-12-08T12:05:15.352Z,5.2
2022-12-08T12:07:11.344Z,5.3
2022-12-08T12:09:08.910Z,5.3
2022-12-08T12:11:06.446Z,5.3
2022-12-08T12:13:04.045Z,5.3
2022-12-08T12:15:01.561Z,5.3
2022-12-08T12:16:59.311Z,5.3
2022-12-08T12:19:04.569Z,5.3
2022-12-08T12:21:02.125Z,5.3
2022-12-08T12:22:59.678Z,5.2
2022-12-08T12:24:57.216Z,5.2
2022-12-08T12:26:54.786Z,5.2
2022-12-08T12:30:49.974Z,5.1
2022-12-08T12:32:55.317Z,5.1
2022-12-08T12:34:52.861Z,5.3
2022-12-08T12:36:50.421Z,5.3
2022-12-08T12:38:47.988Z,5.3
2022-12-08T12:44:40.642Z,5.3
2022-12-08T12:46:46.095Z,5.3
2022-12-08T12:48:43.668Z,5.3
2022-12-08T12:50:41.238Z,5.3
2022-12-08T12:51:43.949Z,5.3
2022-12-08T12:53:41.480Z,5.4
2022-12-08T12:55:39.042Z,5.3
2022-12-08T12:57:36.586Z,5.3
2022-12-08T12:59:42.061Z,5.3
2022-12-08T13:01:39.702Z,5.3
2022-12-08T13:03:37.171Z,5.3
2022-12-08T13:05:34.708Z,5.3
2022-12-08T13:09:29.815Z,5.4
2022-12-08T13:11:27.375Z,5.4
2022-12-08T13:15:30.382Z,5.4
2022-12-08T13:17:27.974Z,5.3
2022-12-08T13:21:23.043Z,5.3
2022-12-08T13:23:20.600Z,5.3
2022-12-08T13:25:18.151Z,5.3
2022-12-08T13:27:23.611Z,5.3
2022-12-08T13:29:21.138Z,5.3
2022-12-08T13:31:18.742Z,5.4
2022-12-08T13:33:18.204Z,5.4
2022-12-08T13:35:13.825Z,5.5
2022-12-08T13:37:11.368Z,5.4
2022-12-08T13:39:08.881Z,5.4
2022-12-08T13:41:14.348Z,5.3
2022-12-08T13:43:11.873Z,5.4
2022-12-08T13:47:34.009Z,5.4
2022-12-08T13:50:55.405Z,5.4
2022-12-08T13:52:59.746Z,5.4
2022-12-08T13:54:45.724Z,5.3
2022-12-08T13:57:22.192Z,5.2
2022-12-08T13:59:19.704Z,5.3
2022-12-08T14:01:17.308Z,5.2
2022-12-08T14:03:14.864Z,5.2
2022-12-08T14:05:34.928Z,5.2
2022-12-08T14:07:17.805Z,5.1
2022-12-08T14:09:15.396Z,5.1
2022-12-08T14:11:12.872Z,5
2022-12-08T14:13:10.413Z,5.1
2022-12-08T14:15:07.946Z,5.1
2022-12-08T14:17:05.480Z,4.9
2022-12-08T14:19:03.025Z,5.1
2022-12-08T14:21:21.359Z,5
2022-12-08T14:23:05.969Z,5
2022-12-08T14:27:01.107Z,5
2022-12-08T14:32:53.730Z,4.9
2022-12-08T14:34:59.138Z,4.9
2022-12-08T14:38:54.224Z,4.9
2022-12-08T14:39:57.091Z,4.9
2022-12-08T14:41:54.456Z,4.9
2022-12-08T14:43:52.001Z,5
2022-12-08T14:45:49.532Z,4.8
2022-12-08T14:47:55.021Z,4.9
2022-12-08T14:49:52.525Z,4.9
2022-12-08T14:53:47.747Z,4.7
2022-12-08T14:55:45.166Z,4.7
2022-12-08T14:57:42.689Z,4.6
2022-12-08T14:59:40.227Z,4.6
2022-12-08T15:01:45.742Z,4.6
2022-12-08T15:03:48.894Z,4.6
2022-12-08T15:05:40.797Z,4.5
2022-12-08T15:11:33.316Z,4.6
2022-12-08T15:13:30.841Z,4.5
2022-12-08T15:15:36.267Z,4.4
2022-12-08T15:17:33.812Z,4.5
2022-12-08T15:19:31.328Z,4.4
2022-12-08T15:21:28.852Z,4.5
2022-12-08T15:23:26.408Z,4.4
2022-12-08T15:25:23.951Z,4.4
2022-12-08T15:27:21.488Z,4.3
2022-12-08T15:29:26.901Z,4.3
2022-12-08T15:31:24.502Z,4.2
2022-12-08T15:34:24.690Z,4.3
2022-12-08T15:36:22.209Z,4.2
2022-12-08T15:38:19.756Z,4.2
2022-12-08T15:40:17.259Z,4.3
2022-12-08T15:42:22.682Z,4.1
2022-12-08T15:48:15.249Z,4.2
2022-12-08T15:50:12.761Z,4.2
2022-12-08T15:52:11.772Z,4.2
2022-12-08T15:54:07.791Z,4.2
2022-12-08T15:58:52.476Z,4.3
2022-12-08T16:00:24.374Z,4.3
2022-12-08T16:02:06.603Z,4.3
2022-12-08T16:06:57.053Z,4.3
2022-12-08T16:10:05.487Z,4.2
2022-12-08T16:12:07.312Z,4.3
2022-12-08T16:14:16.680Z,4.3
2022-12-08T16:16:00.661Z,4.3
2022-12-08T16:17:54.505Z,4.3
2022-12-08T16:19:52.054Z,4.3
2022-12-08T16:22:37.071Z,4.3
2022-12-08T16:23:54.998Z,4.3
2022-12-08T16:26:20.171Z,4.4
2022-12-08T16:28:05.210Z,4.3
2022-12-08T16:28:54.427Z,4.3
2022-12-08T16:32:47.718Z,4.3
2022-12-08T16:34:45.245Z,4.1
2022-12-08T16:36:50.714Z,4.2
2022-12-08T16:38:48.194Z,4.2
2022-12-08T16:40:45.746Z,4.3
2022-12-08T16:44:40.753Z,4.2
2022-12-08T16:46:38.290Z,4.2
2022-12-08T16:48:35.786Z,4.3
2022-12-08T16:50:41.203Z,4.2
2022-12-08T16:52:38.739Z,4.1
2022-12-08T16:56:33.904Z,4.1
2022-12-08T16:58:31.321Z,4.1
2022-12-08T17:02:26.382Z,4.1
2022-12-08T17:04:32.291Z,4.1
2022-12-08T17:06:29.328Z,4.1
2022-12-08T17:08:26.905Z,4.1
2022-12-08T17:10:24.389Z,4.1
2022-12-08T17:12:21.966Z,4.2
2022-12-08T17:14:19.462Z,4.2
2022-12-08T17:16:17.029Z,4.3
2022-12-08T17:18:22.385Z,4.3
2022-12-08T17:20:19.917Z,4.3
2022-12-08T17:22:17.473Z,4.3
2022-12-08T17:24:40.204Z,4.3
2022-12-08T17:26:37.691Z,4.3
2022-12-08T17:28:59.399Z,4.2
2022-12-08T17:30:42.194Z,4.2
2022-12-08T17:32:39.711Z,4.3
2022-12-08T17:34:37.215Z,4.3
2022-12-08T17:36:34.728Z,4.2
2022-12-08T17:38:32.293Z,4.3
2022-12-08T17:40:29.851Z,4.3
2022-12-08T17:42:27.351Z,4.3
2022-12-08T17:44:32.760Z,4.3
2022-12-08T17:46:30.274Z,4.3
2022-12-08T17:48:27.799Z,4.3
2022-12-08T17:50:25.343Z,4.4
2022-12-08T17:52:22.866Z,4.4
2022-12-08T17:54:20.397Z,4.4
2022-12-08T17:56:17.914Z,4.4
2022-12-08T17:58:23.318Z,4.3
2022-12-08T18:00:20.859Z,4.4
2022-12-08T18:02:18.474Z,4.5
2022-12-08T18:04:15.877Z,4.5
2022-12-08T18:06:13.426Z,4.5
2022-12-08T18:10:08.630Z,4.6
2022-12-08T18:14:11.456Z,4.6
2022-12-08T18:16:08.976Z,4.5
2022-12-08T18:17:11.826Z,4.6
2022-12-08T18:21:06.729Z,4.6
2022-12-08T18:23:04.270Z,4.6
2022-12-08T18:29:05.098Z,4.6
2022-12-08T18:31:02.342Z,4.6
2022-12-08T18:32:59.852Z,4.6
2022-12-08T18:34:57.377Z,4.6
2022-12-08T18:36:54.924Z,4.6
2022-12-08T18:39:03.369Z,4.5
2022-12-08T18:40:57.929Z,4.5
2022-12-08T18:44:52.977Z,4.5
2022-12-08T18:46:50.523Z,4.6
2022-12-08T18:48:48.098Z,4.5
2022-12-08T18:50:45.599Z,4.6
2022-12-08T18:52:51.015Z,4.5
2022-12-08T18:55:05.991Z,4.5
2022-12-08T18:56:46.097Z,4.6
2022-12-08T18:58:43.630Z,4.7
2022-12-08T19:00:41.189Z,4.7
2022-12-08T19:02:38.866Z,4.7
2022-12-08T19:06:41.665Z,4.7
2022-12-08T19:11:39.489Z,4.7
2022-12-08T19:13:37.023Z,4.6
2022-12-08T19:15:34.647Z,4.6
2022-12-08T19:17:32.115Z,4.6
2022-12-08T19:19:37.529Z,4.5
2022-12-08T19:21:35.077Z,4.6
2022-12-08T19:25:30.188Z,4.6
2022-12-08T19:27:27.721Z,4.7
2022-12-08T19:29:25.257Z,4.7
2022-12-08T19:31:22.892Z,4.6
2022-12-08T19:35:25.817Z,4.5
2022-12-08T19:37:23.314Z,4.6
2022-12-08T19:39:20.886Z,4.7
2022-12-08T19:41:18.441Z,4.6
2022-12-08T19:43:15.962Z,4.8
2022-12-08T19:45:13.544Z,4.7
2022-12-08T19:49:16.468Z,4.7
2022-12-08T19:51:14.036Z,4.6
2022-12-08T19:53:11.626Z,4.6
2022-12-08T19:57:06.682Z,4.6
2022-12-08T19:59:04.234Z,4.6
2022-12-08T20:01:09.716Z,4.6
2022-12-08T20:03:07.338Z,4.6
2022-12-08T20:05:05.220Z,4.6
2022-12-08T20:06:07.996Z,4.7
2022-12-08T20:08:05.610Z,4.6
2022-12-08T20:10:03.225Z,4.5
2022-12-08T20:12:00.879Z,4.6
2022-12-08T20:14:06.082Z,4.5
2022-12-08T20:16:03.672Z,4.6
2022-12-08T20:18:01.159Z,4.7
2022-12-08T20:21:56.236Z,4.8
2022-12-08T20:23:53.790Z,4.8
2022-12-08T20:25:51.366Z,4.8
2022-12-08T20:27:56.772Z,4.7
2022-12-08T20:29:54.317Z,4.8
2022-12-08T20:31:52.005Z,4.8
2022-12-08T20:33:49.416Z,4.8
2022-12-08T20:35:46.988Z,4.8
2022-12-08T20:37:44.487Z,4.8
2022-12-08T20:39:42.045Z,4.8
2022-12-08T20:41:47.518Z,4.8
2022-12-08T20:43:45.054Z,4.7
2022-12-08T20:45:42.555Z,4.6
2022-12-08T20:47:40.121Z,4.7
2022-12-08T20:49:37.659Z,4.7
2022-12-08T20:51:35.252Z,4.7
2022-12-08T20:53:32.796Z,4.7
2022-12-08T20:57:35.864Z,4.7
2022-12-08T20:59:33.410Z,4.6
2022-12-08T21:02:00.329Z,4.6
2022-12-08T21:05:55.315Z,4.5
2022-12-08T21:08:01.033Z,4.5
2022-12-08T21:09:58.353Z,4.6
2022-12-08T21:11:55.860Z,4.6
2022-12-08T21:13:53.432Z,4.6
2022-12-08T21:15:51.042Z,4.5
2022-12-08T21:17:48.581Z,4.6
2022-12-08T21:23:49.291Z,4.5
2022-12-08T21:25:46.678Z,4.5
2022-12-08T21:27:44.336Z,4.5
2022-12-08T21:29:41.699Z,4.5
2022-12-08T21:31:39.239Z,4.5
2022-12-08T21:33:37.089Z,4.5
2022-12-08T21:35:42.217Z,4.6
2022-12-08T21:39:37.384Z,4.5
2022-12-08T21:41:34.875Z,4.6
2022-12-08T21:43:32.516Z,4.6
2022-12-08T21:47:27.604Z,4.6
2022-12-08T21:49:33.052Z,4.6
2022-12-08T21:51:30.509Z,4.5
2022-12-08T21:53:28.121Z,4.6
2022-12-08T21:54:30.914Z,4.5
2022-12-08T21:58:25.956Z,4.5
2022-12-08T22:00:23.740Z,4.5
2022-12-08T22:02:28.945Z,4.6
2022-12-08T22:04:26.539Z,4.5
2022-12-08T22:06:23.933Z,4.6
2022-12-08T22:08:21.545Z,4.5
2022-12-08T22:10:19.130Z,4.6
2022-12-08T22:12:16.593Z,4.5
2022-12-08T22:14:15.323Z,4.7
2022-12-08T22:16:19.813Z,4.7
2022-12-08T22:18:17.313Z,4.6
2022-12-08T22:20:14.690Z,4.6
2022-12-08T22:22:12.156Z,4.7
2022-12-08T22:26:07.518Z,4.6
2022-12-08T22:28:04.845Z,4.5
2022-12-08T22:30:11.877Z,4.6
2022-12-08T22:32:08.722Z,4.7
2022-12-08T22:34:07.065Z,4.6
2022-12-08T22:38:02.165Z,4.5
2022-12-08T22:39:59.808Z,4.6
2022-12-08T22:41:57.208Z,4.7
2022-12-08T22:44:02.778Z,4.7
2022-12-08T22:46:00.259Z,4.7
2022-12-08T22:47:57.757Z,4.7
2022-12-08T22:49:00.562Z,4.8
2022-12-08T22:52:55.723Z,4.7
2022-12-08T22:54:53.095Z,4.7
2022-12-08T22:56:58.533Z,4.7
2022-12-08T22:58:56.127Z,4.7
2022-12-08T23:00:53.821Z,4.6
2022-12-08T23:02:51.294Z,4.6
2022-12-08T23:06:46.444Z,4.6
2022-12-08T23:08:44.023Z,4.6
2022-12-08T23:10:50.963Z,4.7
2022-12-08T23:12:48.388Z,4.7
2022-12-08T23:14:46.085Z,4.6
2022-12-08T23:16:43.583Z,4.7
2022-12-08T23:18:41.025Z,4.6
2022-12-08T23:20:38.764Z,4.6
2022-12-08T23:22:36.124Z,4.5
2022-12-08T23:24:41.743Z,4.5
2022-12-08T23:26:39.086Z,4.6
2022-12-08T23:28:36.648Z,4.6
2022-12-08T23:30:34.191Z,4.6
2022-12-08T23:32:31.839Z,4.6
2022-12-08T23:38:32.274Z,4.5
2022-12-08T23:43:30.104Z,4.6
2022-12-08T23:45:27.680Z,4.5
2022-12-08T23:47:25.379Z,4.5
2022-12-08T23:49:22.957Z,4.5
2022-12-08T23:51:28.160Z,4.4
2022-12-08T23:53:27.664Z,4.4
2022-12-08T23:55:23.480Z,4.4
2022-12-08T23:57:20.777Z,4.4
2022-12-08T23:59:18.325Z,4.4
